sensor_id;sensor_type;location;lat;lon;timestamp;P1;durP1;ratioP1;P2;durP2;ratioP2
74510;SDS011;62991;50.040;18.400;2022-08-19T00:02:10;11.30;;;6.45;;
74510;SDS011;62991;50.040;18.400;2022-08-19T00:05:11;12.77;;;6.55;;
74510;SDS011;62991;50.040;18.400;2022-08-19T00:08:14;13.55;;;6.50;;
74510;SDS011;62991;50.040;18.400;2022-08-19T00:11:15;13.68;;;6.95;;
74510;SDS011;62991;50.040;18.400;2022-08-19T00:14:16;12.18;;;6.18;;
74510;SDS011;62991;50.040;18.400;2022-08-19T00:17:17;17.33;;;7.85;;
74510;SDS011;62991;50.040;18.400;2022-08-19T00:20:19;12.43;;;7.32;;
74510;SDS011;62991;50.040;18.400;2022-08-19T00:23:21;11.38;;;6.85;;
74510;SDS011;62991;50.040;18.400;2022-08-19T00:26:21;13.25;;;6.75;;
74510;SDS011;62991;50.040;18.400;2022-08-19T00:29:23;14.32;;;7.05;;
74510;SDS011;62991;50.040;18.400;2022-08-19T00:32:25;14.27;;;6.35;;
74510;SDS011;62991;50.040;18.400;2022-08-19T00:35:26;12.35;;;7.18;;
74510;SDS011;62991;50.040;18.400;2022-08-19T00:38:27;11.95;;;5.75;;
74510;SDS011;62991;50.040;18.400;2022-08-19T00:41:28;12.57;;;6.93;;
74510;SDS011;62991;50.040;18.400;2022-08-19T00:44:29;14.65;;;7.05;;
74510;SDS011;62991;50.040;18.400;2022-08-19T00:47:30;13.15;;;7.13;;
74510;SDS011;62991;50.040;18.400;2022-08-19T00:50:32;11.48;;;6.57;;
74510;SDS011;62991;50.040;18.400;2022-08-19T00:53:34;12.50;;;6.22;;
74510;SDS011;62991;50.040;18.400;2022-08-19T00:56:35;12.25;;;6.55;;
74510;SDS011;62991;50.040;18.400;2022-08-19T00:59:36;12.00;;;6.85;;
74510;SDS011;62991;50.040;18.400;2022-08-19T01:02:40;16.02;;;7.63;;
74510;SDS011;62991;50.040;18.400;2022-08-19T01:05:42;14.18;;;6.78;;
74510;SDS011;62991;50.040;18.400;2022-08-19T01:08:45;12.85;;;6.55;;
74510;SDS011;62991;50.040;18.400;2022-08-19T01:11:45;15.75;;;6.75;;
74510;SDS011;62991;50.040;18.400;2022-08-19T01:14:47;10.68;;;6.50;;
74510;SDS011;62991;50.040;18.400;2022-08-19T01:17:48;11.13;;;6.13;;
74510;SDS011;62991;50.040;18.400;2022-08-19T01:20:50;12.40;;;6.93;;
74510;SDS011;62991;50.040;18.400;2022-08-19T01:23:54;12.02;;;6.60;;
74510;SDS011;62991;50.040;18.400;2022-08-19T01:26:54;13.77;;;6.60;;
74510;SDS011;62991;50.040;18.400;2022-08-19T01:29:55;14.07;;;6.68;;
74510;SDS011;62991;50.040;18.400;2022-08-19T01:32:56;11.10;;;6.57;;
74510;SDS011;62991;50.040;18.400;2022-08-19T01:36:07;15.18;;;6.68;;
74510;SDS011;62991;50.040;18.400;2022-08-19T01:39:14;14.07;;;7.43;;
74510;SDS011;62991;50.040;18.400;2022-08-19T01:42:18;14.20;;;6.93;;
74510;SDS011;62991;50.040;18.400;2022-08-19T01:45:20;12.18;;;7.03;;
74510;SDS011;62991;50.040;18.400;2022-08-19T01:48:22;13.48;;;6.40;;
74510;SDS011;62991;50.040;18.400;2022-08-19T01:51:23;14.40;;;7.50;;
74510;SDS011;62991;50.040;18.400;2022-08-19T01:54:24;12.68;;;5.95;;
74510;SDS011;62991;50.040;18.400;2022-08-19T01:57:25;13.02;;;6.00;;
74510;SDS011;62991;50.040;18.400;2022-08-19T02:00:28;10.70;;;6.18;;
74510;SDS011;62991;50.040;18.400;2022-08-19T02:03:31;13.35;;;6.50;;
74510;SDS011;62991;50.040;18.400;2022-08-19T02:06:32;11.57;;;6.20;;
74510;SDS011;62991;50.040;18.400;2022-08-19T02:09:33;12.35;;;6.78;;
74510;SDS011;62991;50.040;18.400;2022-08-19T02:12:34;12.15;;;6.47;;
74510;SDS011;62991;50.040;18.400;2022-08-19T02:15:35;13.82;;;7.00;;
74510;SDS011;62991;50.040;18.400;2022-08-19T02:18:36;10.70;;;6.13;;
74510;SDS011;62991;50.040;18.400;2022-08-19T02:21:37;11.68;;;6.03;;
74510;SDS011;62991;50.040;18.400;2022-08-19T02:24:38;12.38;;;6.15;;
74510;SDS011;62991;50.040;18.400;2022-08-19T02:27:39;13.73;;;7.80;;
74510;SDS011;62991;50.040;18.400;2022-08-19T02:30:41;12.98;;;6.88;;
74510;SDS011;62991;50.040;18.400;2022-08-19T02:33:43;14.50;;;6.50;;
74510;SDS011;62991;50.040;18.400;2022-08-19T02:36:44;12.65;;;6.78;;
74510;SDS011;62991;50.040;18.400;2022-08-19T02:39:45;9.82;;;5.75;;
74510;SDS011;62991;50.040;18.400;2022-08-19T02:42:46;15.30;;;7.35;;
74510;SDS011;62991;50.040;18.400;2022-08-19T02:45:46;14.77;;;6.20;;
74510;SDS011;62991;50.040;18.400;2022-08-19T02:48:48;13.88;;;7.22;;
74510;SDS011;62991;50.040;18.400;2022-08-19T02:51:56;17.25;;;8.52;;
74510;SDS011;62991;50.040;18.400;2022-08-19T02:54:56;12.77;;;6.82;;
74510;SDS011;62991;50.040;18.400;2022-08-19T02:57:57;11.15;;;6.30;;
74510;SDS011;62991;50.040;18.400;2022-08-19T03:00:59;13.20;;;7.03;;
74510;SDS011;62991;50.040;18.400;2022-08-19T03:04:01;14.90;;;7.10;;
74510;SDS011;62991;50.040;18.400;2022-08-19T03:07:04;14.98;;;6.82;;
74510;SDS011;62991;50.040;18.400;2022-08-19T03:10:05;16.60;;;7.97;;
74510;SDS011;62991;50.040;18.400;2022-08-19T03:13:07;13.05;;;7.20;;
74510;SDS011;62991;50.040;18.400;2022-08-19T03:16:09;15.15;;;7.45;;
74510;SDS011;62991;50.040;18.400;2022-08-19T03:19:10;13.88;;;7.05;;
74510;SDS011;62991;50.040;18.400;2022-08-19T03:22:11;15.88;;;7.25;;
74510;SDS011;62991;50.040;18.400;2022-08-19T03:25:12;15.27;;;7.05;;
74510;SDS011;62991;50.040;18.400;2022-08-19T03:28:14;13.95;;;6.85;;
74510;SDS011;62991;50.040;18.400;2022-08-19T03:31:16;12.02;;;6.30;;
74510;SDS011;62991;50.040;18.400;2022-08-19T03:34:21;12.88;;;6.60;;
74510;SDS011;62991;50.040;18.400;2022-08-19T03:37:27;17.02;;;7.05;;
74510;SDS011;62991;50.040;18.400;2022-08-19T03:40:28;13.50;;;6.78;;
74510;SDS011;62991;50.040;18.400;2022-08-19T03:43:30;14.07;;;6.50;;
74510;SDS011;62991;50.040;18.400;2022-08-19T03:46:32;12.23;;;6.68;;
74510;SDS011;62991;50.040;18.400;2022-08-19T03:49:33;11.23;;;6.72;;
74510;SDS011;62991;50.040;18.400;2022-08-19T03:52:35;14.23;;;6.40;;
74510;SDS011;62991;50.040;18.400;2022-08-19T03:55:40;16.40;;;6.72;;
74510;SDS011;62991;50.040;18.400;2022-08-19T03:58:41;13.57;;;6.15;;
74510;SDS011;62991;50.040;18.400;2022-08-19T04:01:42;12.35;;;6.00;;
74510;SDS011;62991;50.040;18.400;2022-08-19T04:04:43;13.57;;;6.93;;
74510;SDS011;62991;50.040;18.400;2022-08-19T04:07:44;11.35;;;6.65;;
74510;SDS011;62991;50.040;18.400;2022-08-19T04:10:45;12.60;;;6.65;;
74510;SDS011;62991;50.040;18.400;2022-08-19T04:13:50;11.43;;;6.43;;
74510;SDS011;62991;50.040;18.400;2022-08-19T04:16:51;13.18;;;7.03;;
74510;SDS011;62991;50.040;18.400;2022-08-19T04:19:53;10.93;;;6.70;;
74510;SDS011;62991;50.040;18.400;2022-08-19T04:22:53;11.75;;;6.78;;
74510;SDS011;62991;50.040;18.400;2022-08-19T04:25:54;11.65;;;6.32;;
74510;SDS011;62991;50.040;18.400;2022-08-19T04:28:55;15.02;;;6.45;;
74510;SDS011;62991;50.040;18.400;2022-08-19T04:31:56;16.40;;;6.53;;
74510;SDS011;62991;50.040;18.400;2022-08-19T04:34:58;13.35;;;6.80;;
74510;SDS011;62991;50.040;18.400;2022-08-19T04:37:59;11.55;;;6.95;;
74510;SDS011;62991;50.040;18.400;2022-08-19T04:40:59;10.73;;;6.00;;
74510;SDS011;62991;50.040;18.400;2022-08-19T04:44:21;11.75;;;6.97;;
74510;SDS011;62991;50.040;18.400;2022-08-19T04:47:22;14.07;;;6.32;;
74510;SDS011;62991;50.040;18.400;2022-08-19T04:50:24;11.95;;;6.68;;
74510;SDS011;62991;50.040;18.400;2022-08-19T04:53:27;13.95;;;6.88;;
74510;SDS011;62991;50.040;18.400;2022-08-19T04:56:29;15.05;;;7.30;;
74510;SDS011;62991;50.040;18.400;2022-08-19T04:59:29;12.98;;;7.10;;
74510;SDS011;62991;50.040;18.400;2022-08-19T05:02:30;12.55;;;6.97;;
74510;SDS011;62991;50.040;18.400;2022-08-19T05:05:31;15.57;;;7.18;;
74510;SDS011;62991;50.040;18.400;2022-08-19T05:08:32;12.30;;;6.72;;
74510;SDS011;62991;50.040;18.400;2022-08-19T05:11:36;15.98;;;8.02;;
74510;SDS011;62991;50.040;18.400;2022-08-19T05:14:39;15.88;;;7.57;;
74510;SDS011;62991;50.040;18.400;2022-08-19T05:17:39;15.93;;;7.63;;
74510;SDS011;62991;50.040;18.400;2022-08-19T05:21:04;14.82;;;7.75;;
74510;SDS011;62991;50.040;18.400;2022-08-19T05:24:26;14.63;;;7.38;;
74510;SDS011;62991;50.040;18.400;2022-08-19T05:27:27;17.17;;;7.82;;
74510;SDS011;62991;50.040;18.400;2022-08-19T05:30:27;12.45;;;7.00;;
74510;SDS011;62991;50.040;18.400;2022-08-19T05:33:28;12.98;;;7.47;;
74510;SDS011;62991;50.040;18.400;2022-08-19T05:36:33;13.63;;;7.80;;
74510;SDS011;62991;50.040;18.400;2022-08-19T05:39:36;16.98;;;7.25;;
74510;SDS011;62991;50.040;18.400;2022-08-19T05:42:37;14.65;;;7.82;;
74510;SDS011;62991;50.040;18.400;2022-08-19T05:45:40;12.50;;;7.20;;
74510;SDS011;62991;50.040;18.400;2022-08-19T05:48:42;11.65;;;6.63;;
74510;SDS011;62991;50.040;18.400;2022-08-19T05:51:44;14.60;;;7.88;;
74510;SDS011;62991;50.040;18.400;2022-08-19T05:54:45;13.18;;;7.40;;
74510;SDS011;62991;50.040;18.400;2022-08-19T05:57:48;13.15;;;7.35;;
74510;SDS011;62991;50.040;18.400;2022-08-19T06:00:51;12.38;;;7.32;;
74510;SDS011;62991;50.040;18.400;2022-08-19T06:07:21;12.07;;;6.72;;
74510;SDS011;62991;50.040;18.400;2022-08-19T06:10:22;16.45;;;7.75;;
74510;SDS011;62991;50.040;18.400;2022-08-19T06:13:23;14.95;;;7.03;;
74510;SDS011;62991;50.040;18.400;2022-08-19T06:19:53;14.23;;;7.90;;
74510;SDS011;62991;50.040;18.400;2022-08-19T06:23:11;13.05;;;7.50;;
74510;SDS011;62991;50.040;18.400;2022-08-19T06:26:12;13.50;;;6.95;;
74510;SDS011;62991;50.040;18.400;2022-08-19T06:29:15;16.83;;;8.52;;
74510;SDS011;62991;50.040;18.400;2022-08-19T06:32:16;17.20;;;7.68;;
74510;SDS011;62991;50.040;18.400;2022-08-19T06:35:18;12.02;;;7.00;;
74510;SDS011;62991;50.040;18.400;2022-08-19T06:38:19;15.32;;;6.97;;
74510;SDS011;62991;50.040;18.400;2022-08-19T06:41:22;13.65;;;7.32;;
74510;SDS011;62991;50.040;18.400;2022-08-19T06:44:25;13.35;;;6.15;;
74510;SDS011;62991;50.040;18.400;2022-08-19T06:47:27;12.05;;;6.13;;
74510;SDS011;62991;50.040;18.400;2022-08-19T06:50:28;12.45;;;6.72;;
74510;SDS011;62991;50.040;18.400;2022-08-19T06:53:30;11.05;;;5.70;;
74510;SDS011;62991;50.040;18.400;2022-08-19T06:56:31;8.02;;;4.22;;
74510;SDS011;62991;50.040;18.400;2022-08-19T06:59:34;15.93;;;6.88;;
74510;SDS011;62991;50.040;18.400;2022-08-19T07:02:36;10.77;;;6.07;;
74510;SDS011;62991;50.040;18.400;2022-08-19T07:05:41;9.13;;;4.10;;
74510;SDS011;62991;50.040;18.400;2022-08-19T07:08:41;17.55;;;6.43;;
74510;SDS011;62991;50.040;18.400;2022-08-19T07:11:49;10.02;;;6.43;;
74510;SDS011;62991;50.040;18.400;2022-08-19T07:14:52;12.90;;;5.50;;
74510;SDS011;62991;50.040;18.400;2022-08-19T07:17:53;12.23;;;6.43;;
74510;SDS011;62991;50.040;18.400;2022-08-19T07:21:02;15.48;;;6.97;;
74510;SDS011;62991;50.040;18.400;2022-08-19T07:24:16;11.00;;;7.00;;
74510;SDS011;62991;50.040;18.400;2022-08-19T07:27:17;13.05;;;6.80;;
74510;SDS011;62991;50.040;18.400;2022-08-19T07:30:19;10.05;;;6.32;;
74510;SDS011;62991;50.040;18.400;2022-08-19T07:33:20;8.82;;;5.40;;
74510;SDS011;62991;50.040;18.400;2022-08-19T07:36:22;9.95;;;5.55;;
74510;SDS011;62991;50.040;18.400;2022-08-19T07:42:28;8.95;;;5.57;;
74510;SDS011;62991;50.040;18.400;2022-08-19T07:45:29;12.02;;;5.45;;
74510;SDS011;62991;50.040;18.400;2022-08-19T07:48:30;10.48;;;5.55;;
74510;SDS011;62991;50.040;18.400;2022-08-19T07:51:33;12.10;;;5.45;;
74510;SDS011;62991;50.040;18.400;2022-08-19T07:54:35;11.23;;;6.32;;
74510;SDS011;62991;50.040;18.400;2022-08-19T07:57:38;9.65;;;5.35;;
74510;SDS011;62991;50.040;18.400;2022-08-19T08:00:38;10.98;;;6.10;;
74510;SDS011;62991;50.040;18.400;2022-08-19T08:03:40;13.32;;;6.13;;
74510;SDS011;62991;50.040;18.400;2022-08-19T08:06:59;10.93;;;6.32;;
74510;SDS011;62991;50.040;18.400;2022-08-19T08:10:18;12.02;;;6.57;;
74510;SDS011;62991;50.040;18.400;2022-08-19T08:13:19;11.18;;;6.50;;
74510;SDS011;62991;50.040;18.400;2022-08-19T08:16:20;10.48;;;6.18;;
74510;SDS011;62991;50.040;18.400;2022-08-19T08:19:21;11.43;;;6.13;;
74510;SDS011;62991;50.040;18.400;2022-08-19T08:22:24;15.85;;;6.82;;
74510;SDS011;62991;50.040;18.400;2022-08-19T08:25:43;11.77;;;7.03;;
74510;SDS011;62991;50.040;18.400;2022-08-19T08:28:44;12.85;;;5.90;;
74510;SDS011;62991;50.040;18.400;2022-08-19T08:31:46;11.30;;;5.95;;
74510;SDS011;62991;50.040;18.400;2022-08-19T08:34:47;9.02;;;6.47;;
74510;SDS011;62991;50.040;18.400;2022-08-19T08:37:48;14.50;;;6.68;;
74510;SDS011;62991;50.040;18.400;2022-08-19T08:40:53;12.73;;;5.95;;
74510;SDS011;62991;50.040;18.400;2022-08-19T08:44:06;10.30;;;6.60;;
74510;SDS011;62991;50.040;18.400;2022-08-19T08:47:15;11.90;;;6.40;;
74510;SDS011;62991;50.040;18.400;2022-08-19T08:50:24;11.18;;;5.97;;
74510;SDS011;62991;50.040;18.400;2022-08-19T08:53:40;12.57;;;6.90;;
74510;SDS011;62991;50.040;18.400;2022-08-19T08:56:43;10.77;;;5.70;;
74510;SDS011;62991;50.040;18.400;2022-08-19T08:59:45;16.02;;;6.35;;
74510;SDS011;62991;50.040;18.400;2022-08-19T09:02:52;11.98;;;6.50;;
74510;SDS011;62991;50.040;18.400;2022-08-19T09:15:45;13.48;;;6.15;;
74510;SDS011;62991;50.040;18.400;2022-08-19T09:18:52;13.45;;;6.15;;
74510;SDS011;62991;50.040;18.400;2022-08-19T09:21:58;11.43;;;6.38;;
74510;SDS011;62991;50.040;18.400;2022-08-19T09:25:00;13.40;;;6.35;;
74510;SDS011;62991;50.040;18.400;2022-08-19T09:28:02;10.52;;;6.38;;
74510;SDS011;62991;50.040;18.400;2022-08-19T09:31:03;11.13;;;5.78;;
74510;SDS011;62991;50.040;18.400;2022-08-19T09:34:04;10.48;;;6.45;;
74510;SDS011;62991;50.040;18.400;2022-08-19T09:37:05;13.07;;;6.18;;
74510;SDS011;62991;50.040;18.400;2022-08-19T09:40:06;14.23;;;6.20;;
74510;SDS011;62991;50.040;18.400;2022-08-19T09:43:07;10.82;;;6.18;;
74510;SDS011;62991;50.040;18.400;2022-08-19T09:46:10;12.02;;;5.28;;
74510;SDS011;62991;50.040;18.400;2022-08-19T09:49:12;11.82;;;5.45;;
74510;SDS011;62991;50.040;18.400;2022-08-19T09:52:14;10.70;;;5.45;;
74510;SDS011;62991;50.040;18.400;2022-08-19T09:55:15;10.18;;;5.28;;
74510;SDS011;62991;50.040;18.400;2022-08-19T09:58:17;10.10;;;5.63;;
74510;SDS011;62991;50.040;18.400;2022-08-19T10:01:19;12.80;;;6.57;;
74510;SDS011;62991;50.040;18.400;2022-08-19T10:04:22;8.18;;;6.03;;
74510;SDS011;62991;50.040;18.400;2022-08-19T10:07:43;8.90;;;6.00;;
74510;SDS011;62991;50.040;18.400;2022-08-19T10:10:44;9.25;;;5.93;;
74510;SDS011;62991;50.040;18.400;2022-08-19T10:13:46;9.38;;;6.03;;
74510;SDS011;62991;50.040;18.400;2022-08-19T10:16:48;16.02;;;7.25;;
74510;SDS011;62991;50.040;18.400;2022-08-19T10:19:51;9.75;;;6.63;;
74510;SDS011;62991;50.040;18.400;2022-08-19T10:23:20;13.43;;;6.32;;
74510;SDS011;62991;50.040;18.400;2022-08-19T10:26:22;22.20;;;10.38;;
74510;SDS011;62991;50.040;18.400;2022-08-19T10:29:27;11.95;;;6.65;;
74510;SDS011;62991;50.040;18.400;2022-08-19T10:32:28;12.10;;;6.53;;
74510;SDS011;62991;50.040;18.400;2022-08-19T10:35:29;13.95;;;8.05;;
74510;SDS011;62991;50.040;18.400;2022-08-19T10:38:30;12.30;;;6.63;;
74510;SDS011;62991;50.040;18.400;2022-08-19T10:41:32;7.18;;;5.03;;
74510;SDS011;62991;50.040;18.400;2022-08-19T10:44:35;10.57;;;5.32;;
74510;SDS011;62991;50.040;18.400;2022-08-19T10:47:36;10.50;;;5.80;;
74510;SDS011;62991;50.040;18.400;2022-08-19T10:50:38;11.23;;;5.78;;
74510;SDS011;62991;50.040;18.400;2022-08-19T10:53:58;10.63;;;6.07;;
74510;SDS011;62991;50.040;18.400;2022-08-19T10:56:59;12.00;;;6.03;;
74510;SDS011;62991;50.040;18.400;2022-08-19T11:00:00;8.73;;;6.25;;
74510;SDS011;62991;50.040;18.400;2022-08-19T11:03:01;9.05;;;6.25;;
74510;SDS011;62991;50.040;18.400;2022-08-19T11:06:03;8.40;;;5.72;;
74510;SDS011;62991;50.040;18.400;2022-08-19T11:09:05;6.85;;;4.03;;
74510;SDS011;62991;50.040;18.400;2022-08-19T11:12:07;9.43;;;5.68;;
74510;SDS011;62991;50.040;18.400;2022-08-19T11:15:09;10.48;;;5.40;;
74510;SDS011;62991;50.040;18.400;2022-08-19T11:18:11;9.43;;;6.25;;
74510;SDS011;62991;50.040;18.400;2022-08-19T11:24:18;10.07;;;5.22;;
74510;SDS011;62991;50.040;18.400;2022-08-19T11:27:24;15.07;;;5.97;;
74510;SDS011;62991;50.040;18.400;2022-08-19T11:30:24;9.10;;;4.93;;
74510;SDS011;62991;50.040;18.400;2022-08-19T11:33:25;11.82;;;5.88;;
74510;SDS011;62991;50.040;18.400;2022-08-19T11:36:27;11.70;;;6.25;;
74510;SDS011;62991;50.040;18.400;2022-08-19T11:39:29;7.97;;;5.65;;
74510;SDS011;62991;50.040;18.400;2022-08-19T11:42:31;7.88;;;5.47;;
74510;SDS011;62991;50.040;18.400;2022-08-19T11:45:50;7.70;;;5.75;;
74510;SDS011;62991;50.040;18.400;2022-08-19T11:48:51;7.93;;;5.07;;
74510;SDS011;62991;50.040;18.400;2022-08-19T11:51:52;9.38;;;5.47;;
74510;SDS011;62991;50.040;18.400;2022-08-19T11:54:53;8.93;;;5.70;;
74510;SDS011;62991;50.040;18.400;2022-08-19T11:57:54;9.70;;;5.55;;
74510;SDS011;62991;50.040;18.400;2022-08-19T12:00:55;11.90;;;5.90;;
74510;SDS011;62991;50.040;18.400;2022-08-19T12:03:56;8.38;;;5.45;;
74510;SDS011;62991;50.040;18.400;2022-08-19T12:06:57;10.82;;;5.30;;
74510;SDS011;62991;50.040;18.400;2022-08-19T12:09:58;8.02;;;5.57;;
74510;SDS011;62991;50.040;18.400;2022-08-19T12:13:00;8.13;;;5.45;;
74510;SDS011;62991;50.040;18.400;2022-08-19T12:16:01;7.95;;;5.32;;
74510;SDS011;62991;50.040;18.400;2022-08-19T12:19:12;11.80;;;5.28;;
74510;SDS011;62991;50.040;18.400;2022-08-19T12:22:12;7.80;;;5.30;;
74510;SDS011;62991;50.040;18.400;2022-08-19T12:25:13;12.13;;;5.47;;
74510;SDS011;62991;50.040;18.400;2022-08-19T12:28:14;7.43;;;5.07;;
74510;SDS011;62991;50.040;18.400;2022-08-19T12:31:16;9.48;;;5.70;;
74510;SDS011;62991;50.040;18.400;2022-08-19T12:34:17;10.05;;;5.80;;
74510;SDS011;62991;50.040;18.400;2022-08-19T12:37:20;8.13;;;5.70;;
74510;SDS011;62991;50.040;18.400;2022-08-19T12:40:20;11.18;;;6.20;;
74510;SDS011;62991;50.040;18.400;2022-08-19T12:43:21;13.40;;;5.75;;
74510;SDS011;62991;50.040;18.400;2022-08-19T12:46:22;8.80;;;5.90;;
74510;SDS011;62991;50.040;18.400;2022-08-19T12:49:23;10.52;;;5.38;;
74510;SDS011;62991;50.040;18.400;2022-08-19T12:52:25;11.23;;;6.40;;
74510;SDS011;62991;50.040;18.400;2022-08-19T12:55:27;8.57;;;5.82;;
74510;SDS011;62991;50.040;18.400;2022-08-19T12:58:29;10.60;;;5.90;;
74510;SDS011;62991;50.040;18.400;2022-08-19T13:01:30;12.35;;;6.20;;
74510;SDS011;62991;50.040;18.400;2022-08-19T13:04:33;7.25;;;5.57;;
74510;SDS011;62991;50.040;18.400;2022-08-19T13:07:36;8.40;;;5.68;;
74510;SDS011;62991;50.040;18.400;2022-08-19T13:10:38;10.27;;;6.35;;
74510;SDS011;62991;50.040;18.400;2022-08-19T13:13:40;11.90;;;6.30;;
74510;SDS011;62991;50.040;18.400;2022-08-19T13:16:42;9.07;;;5.95;;
74510;SDS011;62991;50.040;18.400;2022-08-19T13:19:43;15.07;;;6.85;;
74510;SDS011;62991;50.040;18.400;2022-08-19T13:22:44;9.70;;;5.90;;
74510;SDS011;62991;50.040;18.400;2022-08-19T13:25:54;11.82;;;6.40;;
74510;SDS011;62991;50.040;18.400;2022-08-19T13:28:59;8.63;;;5.95;;
74510;SDS011;62991;50.040;18.400;2022-08-19T13:32:18;11.82;;;5.72;;
74510;SDS011;62991;50.040;18.400;2022-08-19T13:35:47;11.38;;;5.68;;
74510;SDS011;62991;50.040;18.400;2022-08-19T13:38:49;8.30;;;6.10;;
74510;SDS011;62991;50.040;18.400;2022-08-19T13:41:50;8.43;;;5.53;;
74510;SDS011;62991;50.040;18.400;2022-08-19T13:44:53;9.02;;;6.00;;
74510;SDS011;62991;50.040;18.400;2022-08-19T13:47:55;11.32;;;5.95;;
74510;SDS011;62991;50.040;18.400;2022-08-19T13:50:56;10.35;;;6.10;;
74510;SDS011;62991;50.040;18.400;2022-08-19T13:53:58;12.73;;;6.47;;
74510;SDS011;62991;50.040;18.400;2022-08-19T13:56:59;10.85;;;5.90;;
74510;SDS011;62991;50.040;18.400;2022-08-19T14:00:00;11.48;;;6.60;;
74510;SDS011;62991;50.040;18.400;2022-08-19T14:03:01;9.93;;;5.63;;
74510;SDS011;62991;50.040;18.400;2022-08-19T14:06:03;7.75;;;5.10;;
74510;SDS011;62991;50.040;18.400;2022-08-19T14:09:04;9.40;;;5.72;;
74510;SDS011;62991;50.040;18.400;2022-08-19T14:12:05;9.32;;;6.20;;
74510;SDS011;62991;50.040;18.400;2022-08-19T14:15:07;8.27;;;5.47;;
74510;SDS011;62991;50.040;18.400;2022-08-19T14:21:15;9.48;;;5.95;;
74510;SDS011;62991;50.040;18.400;2022-08-19T14:24:17;9.45;;;5.88;;
74510;SDS011;62991;50.040;18.400;2022-08-19T14:27:18;10.77;;;5.78;;
74510;SDS011;62991;50.040;18.400;2022-08-19T14:30:20;6.95;;;5.28;;
74510;SDS011;62991;50.040;18.400;2022-08-19T14:33:25;10.52;;;6.07;;
74510;SDS011;62991;50.040;18.400;2022-08-19T14:36:26;8.15;;;5.13;;
74510;SDS011;62991;50.040;18.400;2022-08-19T14:39:26;9.52;;;5.70;;
74510;SDS011;62991;50.040;18.400;2022-08-19T14:42:27;11.90;;;5.95;;
74510;SDS011;62991;50.040;18.400;2022-08-19T14:45:29;10.68;;;5.78;;
74510;SDS011;62991;50.040;18.400;2022-08-19T14:48:31;16.17;;;7.07;;
74510;SDS011;62991;50.040;18.400;2022-08-19T14:51:36;10.15;;;6.25;;
74510;SDS011;62991;50.040;18.400;2022-08-19T14:54:36;9.57;;;5.32;;
74510;SDS011;62991;50.040;18.400;2022-08-19T14:57:37;15.95;;;8.02;;
74510;SDS011;62991;50.040;18.400;2022-08-19T15:00:40;16.85;;;7.55;;
74510;SDS011;62991;50.040;18.400;2022-08-19T15:03:40;16.73;;;7.70;;
74510;SDS011;62991;50.040;18.400;2022-08-19T15:06:41;23.55;;;8.98;;
74510;SDS011;62991;50.040;18.400;2022-08-19T15:09:42;21.55;;;8.95;;
74510;SDS011;62991;50.040;18.400;2022-08-19T15:12:43;16.25;;;8.55;;
74510;SDS011;62991;50.040;18.400;2022-08-19T15:15:43;15.18;;;8.35;;
74510;SDS011;62991;50.040;18.400;2022-08-19T15:18:45;20.23;;;8.50;;
74510;SDS011;62991;50.040;18.400;2022-08-19T15:21:49;15.13;;;7.80;;
74510;SDS011;62991;50.040;18.400;2022-08-19T15:24:50;16.10;;;7.60;;
74510;SDS011;62991;50.040;18.400;2022-08-19T15:27:51;14.18;;;7.00;;
74510;SDS011;62991;50.040;18.400;2022-08-19T15:30:52;16.38;;;8.98;;
74510;SDS011;62991;50.040;18.400;2022-08-19T15:33:53;14.02;;;6.82;;
74510;SDS011;62991;50.040;18.400;2022-08-19T15:36:57;12.27;;;7.47;;
74510;SDS011;62991;50.040;18.400;2022-08-19T15:39:59;4.80;;;3.22;;
74510;SDS011;62991;50.040;18.400;2022-08-19T15:42:59;14.23;;;5.10;;
74510;SDS011;62991;50.040;18.400;2022-08-19T15:46:00;14.48;;;5.28;;
74510;SDS011;62991;50.040;18.400;2022-08-19T15:49:01;11.55;;;5.18;;
74510;SDS011;62991;50.040;18.400;2022-08-19T15:52:03;11.23;;;6.20;;
74510;SDS011;62991;50.040;18.400;2022-08-19T15:55:06;12.70;;;4.97;;
74510;SDS011;62991;50.040;18.400;2022-08-19T15:58:09;13.00;;;5.90;;
74510;SDS011;62991;50.040;18.400;2022-08-19T16:01:29;12.32;;;5.50;;
74510;SDS011;62991;50.040;18.400;2022-08-19T16:04:33;11.45;;;5.47;;
74510;SDS011;62991;50.040;18.400;2022-08-19T16:07:52;16.60;;;6.05;;
74510;SDS011;62991;50.040;18.400;2022-08-19T16:10:53;10.82;;;5.88;;
74510;SDS011;62991;50.040;18.400;2022-08-19T16:13:55;9.80;;;4.75;;
74510;SDS011;62991;50.040;18.400;2022-08-19T16:16:57;18.38;;;6.20;;
74510;SDS011;62991;50.040;18.400;2022-08-19T16:19:58;13.68;;;5.55;;
74510;SDS011;62991;50.040;18.400;2022-08-19T16:22:59;11.13;;;5.68;;
74510;SDS011;62991;50.040;18.400;2022-08-19T16:26:02;16.90;;;6.13;;
74510;SDS011;62991;50.040;18.400;2022-08-19T16:29:03;17.92;;;6.63;;
74510;SDS011;62991;50.040;18.400;2022-08-19T16:32:06;13.82;;;5.78;;
74510;SDS011;62991;50.040;18.400;2022-08-19T16:35:09;12.48;;;4.93;;
74510;SDS011;62991;50.040;18.400;2022-08-19T16:38:10;10.20;;;4.10;;
74510;SDS011;62991;50.040;18.400;2022-08-19T16:41:12;12.43;;;4.70;;
74510;SDS011;62991;50.040;18.400;2022-08-19T16:44:19;12.15;;;4.75;;
74510;SDS011;62991;50.040;18.400;2022-08-19T16:47:23;8.32;;;4.15;;
74510;SDS011;62991;50.040;18.400;2022-08-19T16:50:24;10.02;;;5.38;;
74510;SDS011;62991;50.040;18.400;2022-08-19T16:53:26;8.65;;;4.47;;
74510;SDS011;62991;50.040;18.400;2022-08-19T16:56:27;16.58;;;6.53;;
74510;SDS011;62991;50.040;18.400;2022-08-19T16:59:28;12.20;;;6.30;;
74510;SDS011;62991;50.040;18.400;2022-08-19T17:02:29;15.55;;;7.38;;
74510;SDS011;62991;50.040;18.400;2022-08-19T17:05:30;15.48;;;7.45;;
74510;SDS011;62991;50.040;18.400;2022-08-19T17:08:31;12.13;;;7.00;;
74510;SDS011;62991;50.040;18.400;2022-08-19T17:11:32;13.07;;;6.97;;
74510;SDS011;62991;50.040;18.400;2022-08-19T17:14:33;12.88;;;6.22;;
74510;SDS011;62991;50.040;18.400;2022-08-19T17:17:34;10.77;;;5.53;;
74510;SDS011;62991;50.040;18.400;2022-08-19T17:20:36;11.57;;;5.82;;
74510;SDS011;62991;50.040;18.400;2022-08-19T17:23:37;10.23;;;5.32;;
74510;SDS011;62991;50.040;18.400;2022-08-19T17:26:38;11.80;;;5.32;;
74510;SDS011;62991;50.040;18.400;2022-08-19T17:29:40;12.80;;;7.07;;
74510;SDS011;62991;50.040;18.400;2022-08-19T17:32:41;12.75;;;5.72;;
74510;SDS011;62991;50.040;18.400;2022-08-19T17:35:41;11.68;;;6.25;;
74510;SDS011;62991;50.040;18.400;2022-08-19T17:38:43;17.75;;;7.05;;
74510;SDS011;62991;50.040;18.400;2022-08-19T17:41:44;24.77;;;8.52;;
74510;SDS011;62991;50.040;18.400;2022-08-19T17:44:45;25.25;;;8.32;;
74510;SDS011;62991;50.040;18.400;2022-08-19T17:47:46;26.95;;;8.32;;
74510;SDS011;62991;50.040;18.400;2022-08-19T17:50:47;15.60;;;6.00;;
74510;SDS011;62991;50.040;18.400;2022-08-19T17:53:51;14.93;;;6.18;;
74510;SDS011;62991;50.040;18.400;2022-08-19T17:56:53;17.13;;;7.90;;
74510;SDS011;62991;50.040;18.400;2022-08-19T17:59:53;19.23;;;9.70;;
74510;SDS011;62991;50.040;18.400;2022-08-19T18:02:56;37.72;;;14.43;;
74510;SDS011;62991;50.040;18.400;2022-08-19T18:05:58;18.70;;;9.32;;
74510;SDS011;62991;50.040;18.400;2022-08-19T18:08:59;20.33;;;8.63;;
74510;SDS011;62991;50.040;18.400;2022-08-19T18:11:59;21.10;;;8.55;;
74510;SDS011;62991;50.040;18.400;2022-08-19T18:15:02;20.63;;;9.00;;
74510;SDS011;62991;50.040;18.400;2022-08-19T18:18:04;22.80;;;9.48;;